Time;durP1;ratioP1;P1;durP2;ratioP2;P2;SDS_P1;SDS_P2;PMS_P1;PMS_P2;Temp;Humidity;BMP_temperature;BMP_pressure;BME280_temperature;BME280_humidity;BME280_pressure;Samples;Min_cycle;Max_cycle;Signal;HPM_P1;HPM_P2
2022/03/27 00:00:49;;;;;;;20.65;13.93;;;7.20;99.90;;;;;;5046017;28;20617;-58
2022/03/27 00:03:15;;;;;;;20.83;14.55;;;7.10;99.90;;;;;;5044760;28;20044;-59
2022/03/27 00:05:41;;;;;;;22.70;14.55;;;7.10;99.90;;;;;;5059712;28;20551;-58
2022/03/27 00:08:07;;;;;;;21.90;13.88;;;7.10;99.90;;;;;;5061523;28;20573;-57
2022/03/27 00:11:23;;;;;;;19.83;13.32;;;7.00;99.90;;;;;;5052247;28;20118;-59
2022/03/27 00:13:19;;;;;;;17.92;12.10;;;7.00;99.90;;;;;;5027414;28;20050;-58
2022/03/27 00:15:45;;;;;;;20.58;14.00;;;6.90;99.90;;;;;;5060279;28;20048;-58
2022/03/27 00:18:11;;;;;;;18.60;13.35;;;7.00;99.90;;;;;;5057876;28;20101;-59
2022/03/27 00:20:37;;;;;;;19.88;13.50;;;7.00;99.90;;;;;;5058270;28;20060;-59
2022/03/27 00:23:03;;;;;;;19.55;12.75;;;7.00;99.90;;;;;;5059510;28;20052;-58
2022/03/27 00:25:29;;;;;;;16.40;11.55;;;7.10;99.90;;;;;;5053767;28;20090;-59
2022/03/27 00:27:55;;;;;;;14.15;10.90;;;7.00;99.90;;;;;;5058139;28;20056;-58
2022/03/27 00:30:21;;;;;;;16.50;11.77;;;7.10;99.90;;;;;;5042550;28;20060;-59
2022/03/27 00:32:47;;;;;;;19.23;12.82;;;7.10;99.90;;;;;;5029676;28;20050;-59
2022/03/27 00:35:15;;;;;;;19.48;13.52;;;7.20;99.90;;;;;;5033746;28;20085;-59
2022/03/27 00:37:40;;;;;;;24.58;15.77;;;7.20;99.90;;;;;;5050857;28;20048;-59
2022/03/27 00:40:09;;;;;;;23.02;16.27;;;7.20;99.90;;;;;;5050523;28;20058;-59
2022/03/27 00:42:35;;;;;;;23.10;15.43;;;7.30;99.90;;;;;;5056537;28;20040;-59
2022/03/27 00:45:02;;;;;;;21.83;15.68;;;7.30;99.90;;;;;;5027691;28;20084;-58
2022/03/27 00:47:28;;;;;;;20.50;15.13;;;7.40;99.90;;;;;;5048846;28;20543;-59
2022/03/27 00:49:54;;;;;;;21.17;14.57;;;7.40;99.90;;;;;;5062789;28;20173;-58
2022/03/27 00:52:20;;;;;;;21.33;15.18;;;7.40;99.90;;;;;;5057809;28;20381;-58
2022/03/27 00:54:46;;;;;;;20.70;13.73;;;7.40;99.90;;;;;;5051098;28;20091;-58
2022/03/27 00:57:12;;;;;;;20.67;14.07;;;7.50;99.90;;;;;;5055263;28;20051;-59
2022/03/27 00:59:38;;;;;;;20.55;13.70;;;7.50;99.90;;;;;;5062708;28;20040;-58
2022/03/27 01:02:04;;;;;;;22.02;13.63;;;7.50;99.90;;;;;;5058683;28;20053;-59
2022/03/27 01:04:30;;;;;;;20.25;13.43;;;7.50;99.90;;;;;;5064135;28;20496;-55
2022/03/27 01:06:58;;;;;;;18.88;12.80;;;7.50;99.90;;;;;;5043417;28;20049;-58
2022/03/27 01:09:36;;;;;;;18.27;11.63;;;7.40;99.90;;;;;;5056455;28;20044;-59
2022/03/27 01:12:31;;;;;;;17.55;13.15;;;7.40;99.90;;;;;;5050732;28;20052;-59
2022/03/27 01:14:59;;;;;;;20.10;12.98;;;7.50;99.90;;;;;;5042635;28;20048;-59
2022/03/27 01:17:26;;;;;;;18.67;11.43;;;7.40;99.90;;;;;;5055419;28;20053;-59
2022/03/27 01:19:55;;;;;;;16.30;11.38;;;7.50;99.90;;;;;;5058342;28;20149;-59
2022/03/27 01:22:22;;;;;;;16.60;12.20;;;7.40;99.90;;;;;;5058614;28;20059;-60
2022/03/27 01:24:51;;;;;;;19.75;12.45;;;7.50;99.90;;;;;;5036204;28;20518;-59
2022/03/27 01:27:17;;;;;;;16.80;12.60;;;7.50;99.90;;;;;;5054468;28;20152;-59
2022/03/27 01:29:44;;;;;;;18.95;12.65;;;7.40;99.90;;;;;;5046080;28;20522;-59
2022/03/27 01:32:14;;;;;;;20.98;13.13;;;7.30;99.90;;;;;;5052924;28;20589;-59
2022/03/27 01:34:44;;;;;;;20.20;13.48;;;7.30;99.90;;;;;;5061906;28;20052;-59
2022/03/27 01:37:12;;;;;;;20.60;12.90;;;7.30;99.90;;;;;;5036987;28;20385;-59
2022/03/27 01:39:38;;;;;;;16.73;12.07;;;7.20;99.90;;;;;;5053779;28;20392;-59
2022/03/27 01:42:05;;;;;;;16.90;12.77;;;7.10;99.90;;;;;;5008106;28;20041;-58
2022/03/27 01:44:32;;;;;;;18.70;12.48;;;7.00;99.90;;;;;;5058147;28;20127;-59
2022/03/27 01:46:59;;;;;;;19.42;12.57;;;7.00;99.90;;;;;;5053156;28;20567;-59
2022/03/27 01:49:26;;;;;;;19.63;13.13;;;6.90;99.90;;;;;;5056421;28;20125;-59
2022/03/27 01:51:53;;;;;;;20.70;13.77;;;6.90;99.90;;;;;;5048692;28;20052;-59
2022/03/27 01:54:19;;;;;;;20.98;13.30;;;6.90;99.90;;;;;;5057542;28;20044;-58
2022/03/27 01:56:45;;;;;;;22.60;13.95;;;6.90;99.90;;;;;;5059406;28;20052;-59
2022/03/27 01:59:12;;;;;;;18.05;12.68;;;7.00;99.90;;;;;;5045530;28;20096;-59
2022/03/27 02:01:38;;;;;;;20.70;12.48;;;6.90;99.90;;;;;;5050807;28;20053;-59
2022/03/27 02:04:05;;;;;;;19.75;13.98;;;7.00;99.90;;;;;;5052434;28;20055;-59
2022/03/27 02:06:32;;;;;;;18.40;13.38;;;7.00;99.90;;;;;;5044947;28;20045;-59
2022/03/27 02:08:59;;;;;;;20.17;13.93;;;7.00;99.90;;;;;;5053441;28;20562;-59
2022/03/27 02:11:26;;;;;;;19.08;13.95;;;7.00;99.90;;;;;;5035076;28;20095;-59
2022/03/27 02:13:52;;;;;;;19.58;13.48;;;6.90;99.90;;;;;;5032033;28;20650;-60
2022/03/27 02:16:18;;;;;;;22.35;14.38;;;6.90;99.90;;;;;;5061989;28;20059;-59
2022/03/27 02:18:45;;;;;;;20.77;14.85;;;6.80;99.90;;;;;;5043654;28;20403;-58
2022/03/27 02:21:12;;;;;;;18.05;13.45;;;6.80;99.90;;;;;;5035071;28;20052;-59
2022/03/27 02:23:38;;;;;;;18.20;14.55;;;6.80;99.90;;;;;;5056155;28;20129;-59
2022/03/27 02:26:08;;;;;;;23.00;15.40;;;6.80;99.90;;;;;;5061419;28;20476;-60
2022/03/27 02:28:34;;;;;;;17.52;14.15;;;6.80;99.90;;;;;;5055758;28;20044;-59
2022/03/27 02:31:01;;;;;;;20.15;13.73;;;6.70;99.90;;;;;;5034077;28;20044;-58
2022/03/27 02:33:27;;;;;;;22.20;14.23;;;6.70;99.90;;;;;;5058731;28;20059;-59
2022/03/27 02:35:53;;;;;;;21.65;13.80;;;6.60;99.90;;;;;;5062274;28;20487;-58
2022/03/27 02:38:19;;;;;;;18.65;13.75;;;6.60;99.90;;;;;;5062542;28;20048;-59
2022/03/27 02:40:46;;;;;;;18.60;13.20;;;6.50;99.90;;;;;;5045877;28;20114;-58
2022/03/27 02:43:12;;;;;;;17.35;13.23;;;6.40;99.90;;;;;;5044219;28;20063;-59
2022/03/27 02:45:40;;;;;;;17.10;12.63;;;6.40;99.90;;;;;;5042519;28;20053;-60
2022/03/27 02:48:06;;;;;;;16.63;13.05;;;6.30;99.90;;;;;;5041062;28;20135;-57
2022/03/27 02:50:33;;;;;;;19.50;14.93;;;6.20;99.90;;;;;;5046939;28;20053;-59
2022/03/27 02:52:59;;;;;;;19.58;14.27;;;6.20;99.90;;;;;;5054112;28;20128;-59
2022/03/27 02:55:26;;;;;;;24.13;13.95;;;6.20;99.90;;;;;;5051366;28;20045;-59
2022/03/27 02:57:53;;;;;;;18.17;14.02;;;6.10;99.90;;;;;;5017916;28;20052;-59
2022/03/27 03:00:20;;;;;;;19.15;14.02;;;6.10;99.90;;;;;;5067824;28;20048;-58
2022/03/27 03:02:46;;;;;;;20.48;14.63;;;6.00;99.90;;;;;;5060402;28;20045;-56
2022/03/27 03:05:13;;;;;;;20.05;14.27;;;6.00;99.90;;;;;;5061974;28;20048;-56
2022/03/27 03:07:42;;;;;;;20.63;15.25;;;5.90;99.90;;;;;;5046629;28;20091;-58
2022/03/27 03:10:10;;;;;;;21.48;15.35;;;5.90;99.90;;;;;;5061941;28;20515;-59
2022/03/27 03:12:36;;;;;;;18.80;14.40;;;5.90;99.90;;;;;;5049491;28;20048;-59
2022/03/27 03:15:03;;;;;;;21.73;15.80;;;5.80;99.90;;;;;;5051014;28;20044;-59
2022/03/27 03:17:29;;;;;;;22.33;15.88;;;5.80;99.90;;;;;;5064012;28;20095;-59
2022/03/27 03:19:55;;;;;;;19.63;14.43;;;5.80;99.90;;;;;;5069721;28;20053;-59
2022/03/27 03:22:22;;;;;;;19.42;13.77;;;5.70;99.90;;;;;;5018968;28;20053;-58
2022/03/27 03:24:48;;;;;;;23.00;15.25;;;5.70;99.90;;;;;;5050134;28;20135;-59
2022/03/27 03:27:14;;;;;;;22.05;14.82;;;5.60;99.90;;;;;;5063743;28;20041;-58
2022/03/27 03:29:40;;;;;;;20.20;14.52;;;5.60;99.90;;;;;;5059257;28;20686;-59
2022/03/27 03:32:07;;;;;;;26.27;14.60;;;5.60;99.90;;;;;;5058984;28;20567;-59
2022/03/27 03:34:33;;;;;;;19.88;14.23;;;5.60;99.90;;;;;;5046423;28;20044;-59
2022/03/27 03:36:59;;;;;;;23.48;13.88;;;5.60;99.90;;;;;;5060269;28;20091;-59
2022/03/27 03:39:25;;;;;;;20.95;14.15;;;5.70;99.90;;;;;;5043557;28;20072;-59
2022/03/27 03:41:51;;;;;;;22.05;13.80;;;5.70;99.90;;;;;;5026009;28;20049;-59
2022/03/27 03:44:17;;;;;;;22.35;13.88;;;5.80;99.90;;;;;;5042519;28;20052;-59
2022/03/27 03:46:44;;;;;;;25.92;14.15;;;5.80;99.90;;;;;;5057861;28;20350;-58
2022/03/27 03:49:10;;;;;;;21.08;13.98;;;5.80;99.90;;;;;;5063060;28;20404;-59
2022/03/27 03:51:37;;;;;;;23.52;14.13;;;5.80;99.90;;;;;;5053195;28;20056;-59
2022/03/27 03:54:06;;;;;;;21.77;14.00;;;5.80;99.90;;;;;;5044497;28;20040;-58
2022/03/27 03:56:33;;;;;;;25.20;14.00;;;5.90;99.90;;;;;;5053388;28;20052;-59
2022/03/27 03:58:59;;;;;;;23.17;13.63;;;5.90;99.90;;;;;;5059700;28;20468;-59
2022/03/27 04:01:25;;;;;;;25.45;13.88;;;5.90;99.90;;;;;;5060296;28;20048;-59
2022/03/27 04:03:51;;;;;;;25.95;13.77;;;6.00;99.90;;;;;;5055129;28;20132;-57
2022/03/27 04:06:17;;;;;;;26.75;14.00;;;6.00;99.90;;;;;;5060791;28;20053;-57
2022/03/27 04:08:43;;;;;;;22.20;13.55;;;6.10;99.90;;;;;;5045548;28;20045;-57
2022/03/27 04:11:16;;;;;;;24.67;13.65;;;6.00;99.90;;;;;;5075172;28;20518;-57
2022/03/27 04:13:43;;;;;;;23.60;14.13;;;6.00;99.90;;;;;;5045533;28;20071;-59
2022/03/27 04:16:11;;;;;;;26.13;13.35;;;6.10;99.90;;;;;;5068247;28;20059;-59
2022/03/27 04:18:37;;;;;;;24.15;13.75;;;6.10;99.90;;;;;;5055402;28;20522;-59
2022/03/27 04:21:03;;;;;;;23.88;13.30;;;6.10;99.90;;;;;;5061969;28;20453;-59
2022/03/27 04:23:29;;;;;;;27.65;14.40;;;6.10;99.90;;;;;;5030439;28;20056;-59
2022/03/27 04:25:55;;;;;;;24.95;13.93;;;6.10;99.90;;;;;;5047845;28;20049;-59
2022/03/27 04:28:21;;;;;;;25.30;14.48;;;6.10;99.90;;;;;;5043256;28;20048;-59
2022/03/27 04:30:47;;;;;;;23.55;12.55;;;6.20;99.90;;;;;;5051563;28;20083;-59
2022/03/27 04:33:14;;;;;;;25.23;13.48;;;6.10;99.90;;;;;;5059791;28;20462;-59
2022/03/27 04:35:40;;;;;;;26.35;13.30;;;6.20;99.90;;;;;;5017606;28;20059;-59
2022/03/27 04:38:06;;;;;;;31.65;12.68;;;6.20;99.90;;;;;;5025955;28;20056;-59
2022/03/27 04:40:32;;;;;;;28.65;13.13;;;6.20;99.90;;;;;;5046485;28;20037;-59
2022/03/27 04:42:58;;;;;;;26.00;13.40;;;6.20;99.90;;;;;;5042968;28;20056;-59
2022/03/27 04:45:24;;;;;;;26.92;12.32;;;6.30;99.90;;;;;;5050351;28;20094;-58
2022/03/27 04:47:50;;;;;;;27.08;12.82;;;6.20;99.90;;;;;;5045004;28;20564;-57
2022/03/27 04:50:16;;;;;;;19.92;11.73;;;6.30;99.90;;;;;;5052819;28;20519;-57
2022/03/27 04:52:42;;;;;;;26.70;12.88;;;6.30;99.90;;;;;;5055511;28;20060;-57
2022/03/27 04:55:09;;;;;;;27.13;13.13;;;6.20;99.90;;;;;;5043679;28;20048;-57
2022/03/27 04:57:37;;;;;;;29.55;12.45;;;6.20;99.90;;;;;;5040250;28;20044;-56
2022/03/27 05:00:05;;;;;;;25.25;12.60;;;6.20;99.90;;;;;;5056232;28;20365;-57
2022/03/27 05:02:32;;;;;;;27.42;13.32;;;6.30;99.90;;;;;;5046039;28;20121;-59
2022/03/27 05:04:58;;;;;;;26.05;11.82;;;6.30;99.90;;;;;;5061446;28;20519;-60
2022/03/27 05:07:24;;;;;;;28.20;12.70;;;6.40;99.90;;;;;;5053323;28;20532;-59
2022/03/27 05:09:50;;;;;;;25.98;12.02;;;6.40;99.90;;;;;;5055570;28;20156;-59
2022/03/27 05:12:16;;;;;;;27.92;13.10;;;6.40;99.90;;;;;;5044215;28;20466;-59
2022/03/27 05:14:42;;;;;;;21.67;11.50;;;6.40;99.90;;;;;;5050703;28;20470;-59
2022/03/27 05:17:09;;;;;;;28.92;12.73;;;6.40;99.90;;;;;;5058260;28;20051;-57
2022/03/27 05:19:35;;;;;;;24.52;12.48;;;6.40;99.90;;;;;;5062349;28;20103;-59
2022/03/27 05:22:01;;;;;;;25.13;12.25;;;6.50;99.90;;;;;;5046655;28;20432;-57
2022/03/27 05:24:28;;;;;;;24.77;12.13;;;6.50;99.90;;;;;;5062445;28;20049;-58
2022/03/27 05:26:54;;;;;;;25.05;13.20;;;6.50;99.90;;;;;;5058549;28;20426;-58
2022/03/27 05:29:21;;;;;;;25.88;12.07;;;6.50;99.90;;;;;;5039274;28;20049;-58
2022/03/27 05:31:47;;;;;;;25.38;11.15;;;6.50;99.90;;;;;;5058482;28;20099;-59
2022/03/27 05:34:13;;;;;;;30.15;12.50;;;6.50;99.90;;;;;;5047540;28;20076;-58
2022/03/27 05:36:39;;;;;;;24.60;12.32;;;6.50;99.90;;;;;;5052126;28;20048;-58
2022/03/27 05:39:05;;;;;;;27.15;12.38;;;6.60;99.90;;;;;;5012668;28;20088;-58
2022/03/27 05:41:31;;;;;;;27.80;12.20;;;6.60;99.90;;;;;;5023957;28;20081;-57
2022/03/27 05:43:57;;;;;;;32.28;13.13;;;6.60;99.90;;;;;;5038081;28;20458;-58
2022/03/27 05:46:23;;;;;;;36.40;12.07;;;6.60;99.90;;;;;;5059454;28;20349;-59
2022/03/27 05:48:49;;;;;;;34.63;13.77;;;6.60;99.90;;;;;;5056877;28;20059;-59
2022/03/27 05:51:15;;;;;;;37.00;13.82;;;6.70;99.90;;;;;;5030299;28;20056;-59
2022/03/27 05:53:43;;;;;;;34.60;12.77;;;6.70;99.90;;;;;;5046670;28;20052;-58
2022/03/27 05:56:09;;;;;;;29.30;12.35;;;6.80;99.90;;;;;;5062663;28;20504;-59
2022/03/27 05:58:37;;;;;;;32.55;13.18;;;6.80;99.90;;;;;;5027121;28;20684;-58
2022/03/27 06:01:07;;;;;;;35.35;13.20;;;6.80;99.90;;;;;;5051918;28;20549;-58
2022/03/27 06:03:33;;;;;;;31.42;12.05;;;6.80;99.90;;;;;;5045701;28;20050;-58
2022/03/27 06:05:59;;;;;;;33.65;13.57;;;6.80;99.90;;;;;;5011793;28;20048;-59
2022/03/27 06:08:25;;;;;;;34.65;13.23;;;6.90;99.90;;;;;;5050948;28;20141;-58
2022/03/27 06:10:51;;;;;;;44.22;15.30;;;6.90;99.90;;;;;;5049485;28;20040;-59
2022/03/27 06:13:19;;;;;;;29.00;12.98;;;6.90;99.90;;;;;;5047780;28;20256;-59
2022/03/27 06:15:46;;;;;;;37.40;13.15;;;6.90;99.90;;;;;;5056219;28;20509;-59
2022/03/27 06:18:12;;;;;;;35.95;12.98;;;6.90;99.90;;;;;;5042880;28;20159;-58
2022/03/27 06:20:40;;;;;;;36.65;13.35;;;6.90;99.90;;;;;;5045983;28;20088;-59
2022/03/27 06:23:06;;;;;;;42.42;14.30;;;6.90;99.90;;;;;;5040392;28;20575;-59
2022/03/27 06:25:34;;;;;;;38.65;14.25;;;7.00;99.90;;;;;;5034441;28;20516;-58
2022/03/27 06:28:00;;;;;;;48.33;15.32;;;7.00;99.90;;;;;;5038005;28;20417;-58
2022/03/27 06:30:28;;;;;;;42.72;15.02;;;7.00;99.90;;;;;;5053560;28;20040;-59
2022/03/27 06:32:56;;;;;;;40.78;14.45;;;7.10;99.90;;;;;;5042570;28;20052;-60
2022/03/27 06:35:23;;;;;;;39.90;13.98;;;7.20;99.90;;;;;;5051161;28;20057;-59
2022/03/27 06:37:51;;;;;;;40.97;13.70;;;7.20;99.90;;;;;;5050703;28;20563;-58
2022/03/27 06:40:17;;;;;;;40.28;14.07;;;7.30;99.90;;;;;;5022661;28;20144;-59
2022/03/27 06:42:45;;;;;;;43.33;14.00;;;7.30;99.90;;;;;;5046765;28;20558;-58
2022/03/27 06:45:13;;;;;;;36.80;14.13;;;7.30;99.90;;;;;;5045117;28;20492;-58
2022/03/27 06:47:41;;;;;;;40.30;13.25;;;7.50;99.90;;;;;;5066486;28;20041;-58
2022/03/27 06:50:08;;;;;;;37.40;14.98;;;7.50;99.90;;;;;;5044152;28;20052;-58
2022/03/27 06:52:36;;;;;;;37.88;12.70;;;7.60;99.90;;;;;;5078709;28;20652;-58
2022/03/27 06:55:03;;;;;;;34.53;12.48;;;7.60;99.90;;;;;;5055187;28;20052;-59
2022/03/27 06:57:29;;;;;;;38.03;14.65;;;7.60;99.90;;;;;;5033291;28;20591;-58
2022/03/27 07:05:24;;;;;;;39.25;16.52;;;7.90;99.90;;;;;;5048203;28;20060;-59
2022/03/27 07:07:51;;;;;;;39.85;15.77;;;7.90;99.90;;;;;;5043595;28;20665;-58
2022/03/27 07:10:17;;;;;;;30.83;14.90;;;8.00;99.90;;;;;;5043639;28;20120;-58
2022/03/27 07:12:44;;;;;;;37.17;13.10;;;7.90;99.90;;;;;;5046191;28;20044;-58
2022/03/27 07:15:10;;;;;;;33.17;12.93;;;7.90;99.90;;;;;;5046102;28;20083;-58
2022/03/27 07:17:50;;;;;;;37.22;14.43;;;7.90;99.90;;;;;;5045263;28;20044;-59
2022/03/27 07:20:18;;;;;;;32.00;11.88;;;8.00;99.90;;;;;;5056198;28;20075;-60
2022/03/27 07:22:45;;;;;;;43.40;18.08;;;8.00;99.90;;;;;;5050111;28;20072;-58
2022/03/27 07:25:12;;;;;;;39.72;13.70;;;8.00;99.90;;;;;;5040408;28;20519;-58
2022/03/27 07:27:40;;;;;;;39.53;14.82;;;8.10;99.90;;;;;;5058854;28;20491;-59
2022/03/27 07:30:06;;;;;;;42.35;15.43;;;8.20;99.90;;;;;;5050114;28;20049;-58
2022/03/27 07:32:33;;;;;;;39.67;14.88;;;8.20;99.90;;;;;;5032239;28;20049;-58
2022/03/27 07:34:59;;;;;;;39.78;14.82;;;8.20;99.90;;;;;;5056272;28;20405;-58
2022/03/27 07:37:25;;;;;;;39.28;15.10;;;8.30;99.90;;;;;;5051264;28;20090;-58
2022/03/27 07:39:51;;;;;;;34.28;14.38;;;8.50;99.90;;;;;;5027774;28;20041;-58
2022/03/27 07:42:17;;;;;;;35.60;14.93;;;8.60;99.90;;;;;;5025693;28;20053;-58
2022/03/27 07:44:44;;;;;;;36.83;12.52;;;8.50;99.90;;;;;;5041704;28;20049;-58
2022/03/27 07:47:10;;;;;;;31.92;11.88;;;8.50;99.90;;;;;;5045421;28;20127;-58
2022/03/27 07:49:36;;;;;;;38.08;12.02;;;8.80;99.90;;;;;;5045435;28;20532;-58
2022/03/27 07:52:05;;;;;;;40.55;13.90;;;8.90;99.90;;;;;;5045338;28;20178;-58
2022/03/27 07:54:32;;;;;;;42.00;12.90;;;9.00;99.90;;;;;;5045770;28;20498;-58
2022/03/27 07:56:58;;;;;;;38.22;15.82;;;9.10;99.90;;;;;;5029186;28;20244;-58
2022/03/27 07:59:25;;;;;;;40.83;13.63;;;9.10;99.90;;;;;;5061660;28;20110;-59
2022/03/27 08:01:51;;;;;;;40.83;13.30;;;9.20;99.90;;;;;;5028402;28;20076;-58
2022/03/27 08:04:18;;;;;;;39.28;12.43;;;9.30;99.90;;;;;;5046596;28;20049;-58
2022/03/27 08:06:46;;;;;;;33.33;13.13;;;9.50;99.90;;;;;;5045515;28;20119;-58
2022/03/27 08:09:13;;;;;;;31.73;12.93;;;9.80;99.90;;;;;;5028316;28;20049;-58
2022/03/27 08:11:41;;;;;;;39.13;14.07;;;9.80;99.90;;;;;;5045525;28;20416;-59
2022/03/27 08:14:09;;;;;;;38.03;18.85;;;9.70;99.90;;;;;;5045523;28;20045;-58
2022/03/27 08:16:37;;;;;;;38.40;13.65;;;9.70;99.90;;;;;;5048161;28;20060;-58
2022/03/27 08:19:03;;;;;;;34.42;15.07;;;9.80;99.90;;;;;;5044728;28;20041;-58
2022/03/27 08:21:30;;;;;;;31.85;12.45;;;9.90;99.90;;;;;;5045797;28;20403;-58
2022/03/27 08:23:56;;;;;;;32.83;13.52;;;9.90;99.90;;;;;;5029284;28;20054;-58
2022/03/27 08:29:07;;;;;;;27.02;12.02;;;11.30;99.90;;;;;;5044961;28;20068;-60
2022/03/27 08:31:33;;;;;;;31.33;12.52;;;12.30;99.90;;;;;;5044639;28;20049;-59
2022/03/27 08:34:00;;;;;;;31.50;11.02;;;13.10;99.90;;;;;;5047522;28;20048;-59
2022/03/27 08:36:29;;;;;;;27.65;10.05;;;13.80;99.90;;;;;;5045380;28;20057;-59
2022/03/27 08:38:55;;;;;;;29.05;10.68;;;14.40;99.90;;;;;;5027526;28;20064;-59
2022/03/27 08:41:22;;;;;;;29.75;11.50;;;14.90;99.90;;;;;;5044298;28;20060;-59
2022/03/27 08:43:58;;;;;;;31.05;10.93;;;14.70;99.90;;;;;;5043997;28;20048;-60
2022/03/27 08:46:30;;;;;;;27.52;10.25;;;15.00;99.90;;;;;;5046034;28;20041;-60
2022/03/27 08:49:07;;;;;;;27.33;10.40;;;15.00;99.90;;;;;;5046025;28;20041;-60
2022/03/27 08:52:00;;;;;;;25.33;9.60;;;15.80;99.90;;;;;;5047094;28;20041;-60
2022/03/27 08:54:40;;;;;;;26.50;9.70;;;16.20;99.90;;;;;;5036713;28;20058;-60
2022/03/27 08:57:29;;;;;;;30.35;8.52;;;16.70;99.90;;;;;;5033980;28;20188;-60
2022/03/27 08:59:57;;;;;;;30.42;9.23;;;16.80;99.90;;;;;;5037411;28;20048;-60
2022/03/27 09:02:24;;;;;;;39.38;17.80;;;17.00;99.90;;;;;;5043869;28;20048;-60
2022/03/27 09:04:55;;;;;;;25.42;9.18;;;17.30;99.90;;;;;;5045041;28;20522;-60
2022/03/27 09:07:25;;;;;;;24.25;8.13;;;17.30;93.30;;;;;;5044314;28;20641;-60
2022/03/27 09:09:52;;;;;;;26.83;8.02;;;17.20;91.40;;;;;;5046590;28;20113;-60
2022/03/27 09:12:19;;;;;;;33.05;9.80;;;17.40;86.60;;;;;;5044677;28;20482;-60
2022/03/27 09:14:46;;;;;;;29.85;9.77;;;17.70;78.50;;;;;;5044930;28;20123;-60
2022/03/27 09:17:13;;;;;;;22.65;7.88;;;17.60;77.80;;;;;;5046226;28;20521;-60
2022/03/27 09:19:43;;;;;;;30.30;8.77;;;17.90;75.40;;;;;;5045798;28;20500;-60
2022/03/27 09:22:14;;;;;;;25.73;9.68;;;18.30;69.00;;;;;;5045047;28;20080;-60
2022/03/27 09:24:41;;;;;;;23.02;8.32;;;18.50;65.70;;;;;;5045956;28;20049;-61
2022/03/27 09:27:08;;;;;;;25.05;8.38;;;18.80;67.70;;;;;;5044479;28;20045;-58
2022/03/27 09:30:12;;;;;;;35.85;17.23;;;18.60;66.10;;;;;;5043381;28;20045;-62
2022/03/27 09:32:43;;;;;;;24.42;8.43;;;19.00;60.00;;;;;;5041536;28;20045;-63
2022/03/27 09:35:12;;;;;;;26.48;8.85;;;19.10;60.60;;;;;;5042967;28;20041;-62
2022/03/27 09:37:41;;;;;;;49.17;33.25;;;19.20;58.20;;;;;;5042813;28;20534;-62
2022/03/27 09:40:09;;;;;;;46.05;32.42;;;19.60;57.80;;;;;;5042516;28;20060;-62
2022/03/27 09:42:40;;;;;;;33.40;17.77;;;19.40;56.70;;;;;;5037866;28;20055;-62
2022/03/27 09:45:14;;;;;;;24.40;8.38;;;19.70;54.20;;;;;;5026599;28;20056;-62
2022/03/27 09:47:41;;;;;;;29.92;13.82;;;19.70;51.30;;;;;;5031975;28;20367;-62
2022/03/27 09:50:09;;;;;;;24.45;9.00;;;19.90;52.70;;;;;;5042909;28;20048;-62
2022/03/27 09:52:36;;;;;;;29.98;12.43;;;20.10;51.70;;;;;;5036969;28;20399;-62
2022/03/27 09:55:07;;;;;;;31.15;9.48;;;20.00;52.00;;;;;;5038688;28;20559;-62
2022/03/27 09:57:38;;;;;;;30.88;16.02;;;20.20;50.70;;;;;;5058135;28;20053;-62
2022/03/27 10:00:16;;;;;;;22.17;7.50;;;20.30;47.30;;;;;;5043078;28;20041;-62
2022/03/27 10:02:43;;;;;;;26.10;10.80;;;20.60;45.90;;;;;;5041240;28;20053;-61
2022/03/27 10:05:14;;;;;;;26.35;11.85;;;20.60;47.80;;;;;;5029648;28;20049;-62
2022/03/27 10:07:47;;;;;;;20.98;7.85;;;21.20;46.30;;;;;;5046907;28;20127;-60
2022/03/27 10:10:15;;;;;;;22.08;6.93;;;20.90;45.90;;;;;;5049572;28;20045;-61
2022/03/27 10:12:44;;;;;;;20.70;6.25;;;20.70;46.10;;;;;;5058609;28;20099;-60
2022/03/27 10:15:15;;;;;;;20.50;6.72;;;21.10;44.80;;;;;;5037627;28;20125;-60
2022/03/27 10:17:48;;;;;;;20.48;6.35;;;20.70;43.40;;;;;;5048987;28;20403;-57
2022/03/27 10:20:17;;;;;;;21.95;6.13;;;21.00;43.20;;;;;;5054224;28;20047;-57
2022/03/27 10:22:48;;;;;;;23.98;7.25;;;21.20;44.30;;;;;;5062783;28;20116;-59
2022/03/27 10:25:16;;;;;;;;;;;21.10;42.80;;;;;;5044212;28;20041;-59
2022/03/27 10:27:44;;;;;;;22.40;8.13;;;21.20;41.50;;;;;;5045286;28;19935;-60
2022/03/27 10:30:13;;;;;;;21.23;6.97;;;21.50;43.30;;;;;;5060585;28;20049;-62
2022/03/27 10:32:42;;;;;;;22.98;6.65;;;21.30;43.90;;;;;;5045232;28;20056;-60
2022/03/27 10:35:42;;;;;;;24.48;9.75;;;21.30;43.80;;;;;;5044185;28;20424;-60
2022/03/27 10:38:34;;;;;;;19.50;7.85;;;21.60;43.70;;;;;;5048345;28;20045;-60
2022/03/27 10:41:20;;;;;;;21.17;7.10;;;21.10;41.60;;;;;;5039231;28;20083;-56
2022/03/27 10:43:46;;;;;;;22.00;7.75;;;21.40;42.30;;;;;;5051639;28;20041;-58
2022/03/27 10:46:21;;;;;;;23.83;9.70;;;21.70;42.00;;;;;;5058661;28;20053;-61
2022/03/27 10:48:50;;;;;;;22.88;6.55;;;21.80;40.80;;;;;;5048520;28;20102;-58
2022/03/27 10:51:38;;;;;;;17.95;5.57;;;22.00;41.80;;;;;;5041255;28;20040;-58
2022/03/27 10:54:15;;;;;;;18.52;6.68;;;22.30;39.50;;;;;;5056094;28;20060;-58
2022/03/27 10:56:49;;;;;;;17.77;6.28;;;22.30;40.70;;;;;;5069506;28;20138;-58
2022/03/27 10:59:27;;;;;;;19.80;9.73;;;22.60;37.40;;;;;;5043919;28;20106;-58
2022/03/27 11:02:03;;;;;;;18.88;6.05;;;22.70;38.50;;;;;;5039649;28;20057;-58
2022/03/27 11:04:38;;;;;;;19.80;6.30;;;23.20;37.90;;;;;;5009212;28;20048;-58
2022/03/27 11:07:17;;;;;;;17.98;5.82;;;23.50;39.00;;;;;;5043154;28;20054;-58
2022/03/27 11:09:44;;;;;;;23.67;7.25;;;23.40;36.80;;;;;;5045180;28;20488;-58
2022/03/27 11:12:24;;;;;;;22.17;6.95;;;23.40;38.20;;;;;;5007326;28;20507;-58
2022/03/27 11:14:53;;;;;;;16.75;6.20;;;23.60;38.40;;;;;;5042057;28;20048;-58
2022/03/27 11:17:44;;;;;;;20.70;6.18;;;23.90;37.20;;;;;;5046073;28;20044;-58
2022/03/27 11:20:12;;;;;;;;;;;23.50;36.40;;;;;;5059679;28;20102;-58
2022/03/27 11:22:59;;;;;;;16.85;5.72;;;23.00;37.00;;;;;;5041998;28;19969;-58
2022/03/27 11:25:28;;;;;;;18.67;6.10;;;23.90;35.90;;;;;;5045861;28;20207;-57
2022/03/27 11:28:07;;;;;;;21.10;8.18;;;23.70;35.80;;;;;;5042265;28;20044;-57
2022/03/27 11:30:35;;;;;;;17.52;6.45;;;24.00;35.90;;;;;;5044095;28;20528;-57
2022/03/27 11:33:18;;;;;;;18.20;6.10;;;24.10;35.70;;;;;;5043041;28;20049;-57
2022/03/27 11:36:09;;;;;;;17.35;6.25;;;24.50;33.60;;;;;;5063332;28;20060;-58
2022/03/27 11:38:51;;;;;;;20.02;6.05;;;24.60;34.10;;;;;;5058295;28;20064;-58
2022/03/27 11:41:27;;;;;;;15.80;5.68;;;24.70;35.20;;;;;;5046466;28;20174;-58
2022/03/27 11:47:20;;;;;;;20.50;6.85;;;24.90;33.90;;;;;;5046852;28;20126;-58
2022/03/27 11:49:48;;;;;;;19.50;7.13;;;24.80;33.70;;;;;;5047858;28;20033;-58
2022/03/27 11:52:20;;;;;;;14.75;5.35;;;24.80;34.70;;;;;;5045084;28;20060;-58
2022/03/27 11:54:47;;;;;;;15.55;5.65;;;24.60;35.30;;;;;;5046717;28;20115;-58
2022/03/27 11:57:16;;;;;;;18.55;5.60;;;24.10;35.70;;;;;;5045415;28;20088;-58
2022/03/27 11:59:45;;;;;;;17.88;5.72;;;24.30;34.50;;;;;;5046541;28;20107;-59
2022/03/27 12:02:11;;;;;;;17.42;5.88;;;24.30;32.60;;;;;;5047585;28;20120;-58
2022/03/27 12:04:53;;;;;;;18.15;5.97;;;24.40;33.90;;;;;;5048323;28;20049;-59
2022/03/27 12:07:23;;;;;;;16.52;5.65;;;24.50;33.60;;;;;;5046879;28;20037;-59
2022/03/27 12:09:57;;;;;;;16.47;5.97;;;24.30;34.20;;;;;;5044579;28;20539;-58
2022/03/27 12:12:23;;;;;;;17.70;5.40;;;24.50;34.30;;;;;;5045225;28;20040;-59
2022/03/27 12:14:50;;;;;;;18.20;6.18;;;24.80;33.80;;;;;;5046970;28;20049;-60
2022/03/27 12:17:18;;;;;;;15.55;5.57;;;24.80;33.50;;;;;;5044942;28;20056;-60
2022/03/27 12:20:08;;;;;;;17.45;5.82;;;25.20;32.80;;;;;;5052170;28;20071;-60
2022/03/27 12:22:34;;;;;;;15.98;5.18;;;25.20;31.90;;;;;;5065240;28;20063;-60
2022/03/27 12:25:02;;;;;;;19.67;6.38;;;25.50;32.40;;;;;;5049254;28;20084;-60
2022/03/27 12:30:13;;;;;;;16.25;5.10;;;25.70;31.50;;;;;;5058973;28;20412;-59
2022/03/27 12:32:39;;;;;;;16.10;5.93;;;25.60;31.30;;;;;;5046818;28;20044;-59
2022/03/27 12:35:06;;;;;;;17.10;5.43;;;25.20;31.50;;;;;;5059545;28;20393;-59
2022/03/27 12:37:42;;;;;;;15.32;5.72;;;25.20;31.50;;;;;;5045072;28;20411;-58
2022/03/27 12:40:09;;;;;;;18.20;7.22;;;25.10;31.50;;;;;;5043441;28;20044;-58
2022/03/27 12:42:47;;;;;;;17.42;5.93;;;25.30;31.30;;;;;;5058555;28;20518;-58
2022/03/27 12:45:41;;;;;;;14.25;4.78;;;25.90;30.70;;;;;;5059706;28;20044;-58
2022/03/27 12:48:20;;;;;;;18.13;9.45;;;25.50;30.30;;;;;;5037320;28;20041;-58
2022/03/27 12:50:48;;;;;;;15.20;5.38;;;25.90;30.20;;;;;;5039131;28;20040;-58
2022/03/27 12:53:26;;;;;;;15.38;5.35;;;25.40;30.50;;;;;;5045614;28;20053;-58
2022/03/27 12:56:01;;;;;;;19.90;11.05;;;25.90;30.70;;;;;;5048593;28;20053;-58
2022/03/27 12:58:35;;;;;;;16.88;5.25;;;26.00;31.00;;;;;;5042350;28;20318;-58